Orchard Beach, Maryland
Current Conditions -  °F | °C
As of 11:54 PM on Friday 19 Dec 2014 (Local Time) from KBWI Reporting Station
Clear Clear  
Wind Chill: 24°   Ceiling: Unl
Heat Index: 29°   Visibility: 10mi
Dew Point: 20°   Wind: 5mph
Humidity: 69%   Direction: 290°WNW
Pressure: 30.24"   Gusts: NA
Location:  39.1918°N, 76.5466°W
Report Text: KBWI 200454Z 29004KT 10SM CLR M02/M07 A3024 RMK AO2 SLP241 T10171067 400561022
Loading
Personal Weather Stations






























Interactive Weather Map New forecast layout! Learn more

10-Day Weather Forecast

Advertisements
Track Severe Weather on mobile